Kezdőlap
METAR-TAF:

METAR-TAF

Repülőterek :

Quaqtaq, Québec, Kanada

földrajzi szélesség: 61-03N, földrajzi hosszúság: 069-38W, magasság: 30 m

Jelenlegi meteorológiai megfigyelések

A jelentés 9 órával és 38 perccel ezelõtt készült, 21:00 UTC
Kelet-délkeleti szél 9 kt
Hőmérséklet 2°C
Páratartalom 87%
Légköri nyomás 1021 hPa
Látótávolság: 24.1 km
Kevés felhő 200 lábon
Kevés felhő 800 lábon
Kevés felhő 10000 lábon
Borult 25000 lábon
köd a közelben

METAR: CYHA 212100Z 11009KT 15SM VCFG FEW002 FEW008 FEW100 OVC250 02/M00 A3016 RMK SF1SF1AC1CS8 SF TR SF TR AC TR VIS NW-N 3 FG BNK W-N LAST STFD OBS/NEXT 221200 UTC SLP217

Idő: 02:38 (06:38 UTC)

Előrejelzés

A jelentés 11 órával és 34 perccel ezelõtt készült, 19:04 UTC
Az előrejelzés 21-én 19 óra UTC és 21-én 21 óra UTC között érvényes
Délkeleti szél 5 kt
Látótávolság: 10 km
Kevés felhő 800 lábon

TAF: CYHA 211904Z 2119/2121 13005KT P6SM FEW008 RMK NXT FCST WILL BE ISSUED AT 221345Z

Meteorológiai megfigyelések és előrejelzések több, mint 4000 repülőtéren (METAR és TAF jelentéseket).

A térképen piros és sárga pontok jelzik az elérhető meteorológiai állomásokat.

Mozgassa az egeret a pont fölött, hogy megjelenjen az állomás neve.

Azután kattintson az időjárási megfigyelések és előrejelzések megtekintéséhez.

A térkép megváltoztatása: kattintson a fekete keresztel jelölt zöld gombra ráközelítéshez, a vonallal jelölt zöld gombra távolításhoz, vagy a zöld nyilakra a szomszédos térképek eléréséhez.


METAR-TAF: